ドバイ の空港の天気 - METARとTAF

ドバイ国際空港 ( OMDB / DXB ) - アラブ首長国連邦 ドバイ
飛行場実況気象(Metar)
観測時間02/26 07:00 GST (02/26 03:00 UTC)
風向・風速東 3m/s
視程10km以上
天気現象
少しの雲 雲底高度 1070m
気温20℃
湿度78%
気圧1015hPa
METAROMDB 260300Z 09005KT 060V120 9999 FEW035 20/16 Q1015 NOSIG
過去の天気等 Google飛行場航空写真 Wunderground天気予報

過去48時間のMETAR

飛行場予報(TAF)
発表時間: 2/26 03:04 GST (2/25 23:04 UTC)
予報対象時間: 26日4時 GST ~ 27日10時 GST
風向・風速東 3m/s
視程10km以上
なし
26日12時 GST ~ 26日14時 GST に徐々に
風向・風速北北西 5m/s
26日20時 GST ~ 26日22時 GST に徐々に
風向・風速北東 3m/s
TAF OMDB 252304Z 2600/2706 08005KT CAVOK
BECMG 2608/2610 33010KT
BECMG 2616/2618 04005KT